createdAt,value
2024-04-10T00:00:58.808Z,179.84
2024-04-10T00:01:58.531Z,179.27
2024-04-10T00:02:58.391Z,180.41
2024-04-10T00:03:58.401Z,179.77
2024-04-10T00:04:58.750Z,178.95
2024-04-10T00:05:58.449Z,179.04
2024-04-10T00:06:58.434Z,178.40
2024-04-10T00:07:58.404Z,178.70
2024-04-10T00:08:58.383Z,177.32
2024-04-10T00:09:58.391Z,177.80
2024-04-10T00:10:58.490Z,179.17
2024-04-10T00:11:58.695Z,175.13
2024-04-10T00:12:58.465Z,175.88
2024-04-10T00:13:58.503Z,177.32
2024-04-10T00:14:58.992Z,174.10
2024-04-10T00:15:58.470Z,176.85
2024-04-10T00:16:58.489Z,178.02
2024-04-10T00:17:58.676Z,176.84
2024-04-10T00:18:58.864Z,176.27
2024-04-10T00:19:58.623Z,176.26
2024-04-10T00:20:58.650Z,177.11
2024-04-10T00:21:58.577Z,175.41
2024-04-10T00:22:58.674Z,173.75
2024-04-10T00:23:58.802Z,176.36
2024-04-10T00:24:58.652Z,178.70
2024-04-10T00:25:58.644Z,176.77
2024-04-10T00:26:58.670Z,177.79
2024-04-10T00:27:58.651Z,177.58
2024-04-10T00:28:58.862Z,178.36
2024-04-10T00:29:58.736Z,176.48
2024-04-10T00:30:58.771Z,175.25
2024-04-10T00:31:58.780Z,176.46
2024-04-10T00:32:58.991Z,177.36
2024-04-10T00:33:58.918Z,177.42
2024-04-10T00:34:58.874Z,176.88
2024-04-10T00:35:58.814Z,178.91
2024-04-10T00:36:58.828Z,177.69
2024-04-10T00:37:58.982Z,180.19
2024-04-10T00:38:58.869Z,179.55
2024-04-10T00:39:58.928Z,179.30
2024-04-10T00:40:58.995Z,179.90
2024-04-10T00:41:58.971Z,178.52
2024-04-10T00:42:58.913Z,176.90
2024-04-10T00:43:58.975Z,179.34
2024-04-10T00:44:59.010Z,177.91
2024-04-10T00:45:58.942Z,177.81
2024-04-10T00:46:59.068Z,178.28
2024-04-10T00:47:59.462Z,178.43
2024-04-10T00:48:59.140Z,177.88
2024-04-10T00:49:59.038Z,177.25
2024-04-10T00:50:59.032Z,178.41
2024-04-10T00:51:59.040Z,178.68
2024-04-10T00:52:59.109Z,176.71
2024-04-10T00:53:59.102Z,176.24
2024-04-10T00:54:59.129Z,177.61
2024-04-10T00:55:59.155Z,175.96
2024-04-10T00:56:59.188Z,176.86
2024-04-10T00:57:59.124Z,179.74
2024-04-10T00:58:59.170Z,176.64
2024-04-10T00:59:59.262Z,178.06
2024-04-10T01:00:59.347Z,178.81
2024-04-10T01:01:59.188Z,179.43
2024-04-10T01:02:59.998Z,178.02
2024-04-10T01:03:59.428Z,178.81
2024-04-10T01:04:59.285Z,179.08
2024-04-10T01:05:59.240Z,177.82
2024-04-10T01:06:59.239Z,179.09
2024-04-10T01:07:59.300Z,178.22
2024-04-10T01:08:59.240Z,179.12
2024-04-10T01:09:59.331Z,177.44
2024-04-10T01:10:59.353Z,175.56
2024-04-10T01:11:59.369Z,176.57
2024-04-10T01:12:59.338Z,177.88
2024-04-10T01:13:59.336Z,177.34
2024-04-10T01:14:59.350Z,176.88
2024-04-10T01:15:59.406Z,176.42
2024-04-10T01:16:59.503Z,178.68
2024-04-10T01:17:59.645Z,177.31
2024-04-10T01:18:59.590Z,177.05
2024-04-10T01:19:59.759Z,177.44
2024-04-10T01:20:59.436Z,179.35
2024-04-10T01:21:59.507Z,176.69
2024-04-10T01:22:59.498Z,176.45
2024-04-10T01:23:59.472Z,178.13
2024-04-10T01:24:59.487Z,178.70
2024-04-10T01:25:59.600Z,177.48
2024-04-10T01:26:59.758Z,175.00
2024-04-10T01:27:59.531Z,178.30
2024-04-10T01:28:59.603Z,176.32
2024-04-10T01:29:59.587Z,177.64
2024-04-10T01:30:59.598Z,179.38
2024-04-10T01:31:59.672Z,177.84
2024-04-10T01:32:59.824Z,177.46
2024-04-10T01:33:59.751Z,178.37
2024-04-10T01:34:59.739Z,177.79
2024-04-10T01:35:59.689Z,177.05
2024-04-10T01:36:59.784Z,176.73
2024-04-10T01:37:59.880Z,178.48
2024-04-10T01:38:59.762Z,177.60
2024-04-10T01:39:59.784Z,175.33
2024-04-10T01:40:59.902Z,179.04
2024-04-10T01:41:59.880Z,176.83
2024-04-10T01:42:59.901Z,179.43
2024-04-10T01:43:59.893Z,178.15
2024-04-10T01:44:59.852Z,179.46
2024-04-10T01:46:00.532Z,180.30
2024-04-10T01:47:00.006Z,177.95
2024-04-10T01:48:00.199Z,177.45
2024-04-10T01:49:00.151Z,178.25
2024-04-10T01:49:59.986Z,180.84
2024-04-10T01:50:59.950Z,178.81
2024-04-10T01:51:59.965Z,180.36
2024-04-10T01:53:00.064Z,180.60
2024-04-10T01:54:00.022Z,180.00
2024-04-10T01:55:00.053Z,179.45
2024-04-10T01:56:00.119Z,177.82
2024-04-10T01:57:00.066Z,179.99
2024-04-10T01:58:00.126Z,177.71
2024-04-10T01:59:00.124Z,179.93
2024-04-10T02:00:00.278Z,177.73
2024-04-10T02:01:00.340Z,179.31
2024-04-10T02:02:00.238Z,178.98
2024-04-10T02:03:00.256Z,178.36
2024-04-10T02:04:00.356Z,179.82
2024-04-10T02:05:00.275Z,181.17
2024-04-10T02:06:00.377Z,180.98
2024-04-10T02:07:00.264Z,180.55
2024-04-10T02:08:00.509Z,177.77
2024-04-10T02:09:00.281Z,178.14
2024-04-10T02:10:00.333Z,179.57
2024-04-10T02:11:00.440Z,180.68
2024-04-10T02:12:00.443Z,177.91
2024-04-10T02:13:00.412Z,179.22
2024-04-10T02:14:00.479Z,177.82
2024-04-10T02:15:00.527Z,180.42
2024-04-10T02:16:00.502Z,179.05
2024-04-10T02:17:00.677Z,180.15
2024-04-10T02:18:00.702Z,179.89
2024-04-10T02:19:00.506Z,181.62
2024-04-10T02:20:00.712Z,178.82
2024-04-10T02:21:02.618Z,177.35
2024-04-10T02:22:00.518Z,177.45
2024-04-10T02:23:00.577Z,177.59
2024-04-10T02:24:00.589Z,177.77
2024-04-10T02:25:00.544Z,178.93
2024-04-10T02:26:00.621Z,178.56
2024-04-10T02:27:00.565Z,178.16
2024-04-10T02:28:00.782Z,179.47
2024-04-10T02:29:00.576Z,177.77
2024-04-10T02:30:00.588Z,178.20
2024-04-10T02:31:00.540Z,178.11
2024-04-10T02:32:00.653Z,177.44
2024-04-10T02:33:00.810Z,179.11
2024-04-10T02:34:00.786Z,178.29
2024-04-10T02:35:00.714Z,178.69
2024-04-10T02:36:00.578Z,177.86
2024-04-10T02:37:00.580Z,178.01
2024-04-10T02:38:00.632Z,177.25
2024-04-10T02:39:00.582Z,177.21
2024-04-10T02:40:00.711Z,177.74
2024-04-10T02:41:01.356Z,177.41
2024-04-10T02:42:00.691Z,178.75
2024-04-10T02:43:00.556Z,178.48
2024-04-10T02:44:00.648Z,179.55
2024-04-10T02:45:00.608Z,177.19
2024-04-10T02:46:00.689Z,178.34
2024-04-10T02:47:00.704Z,177.38
2024-04-10T02:48:00.610Z,179.09
2024-04-10T02:49:00.560Z,178.45
2024-04-10T02:50:00.593Z,177.39
2024-04-10T02:51:00.582Z,181.38
2024-04-10T02:52:00.677Z,179.34
2024-04-10T02:53:00.570Z,177.50
2024-04-10T02:54:00.839Z,179.02
2024-04-10T02:55:00.602Z,180.01
2024-04-10T02:56:00.586Z,179.73
2024-04-10T02:57:00.590Z,176.25
2024-04-10T02:58:00.678Z,180.26
2024-04-10T02:59:00.936Z,179.67
2024-04-10T03:00:00.592Z,179.71
2024-04-10T03:01:00.672Z,181.18
2024-04-10T03:02:00.689Z,181.91
2024-04-10T03:03:00.605Z,180.73
2024-04-10T03:04:00.706Z,181.64
2024-04-10T03:05:00.745Z,179.87
2024-04-10T03:06:00.563Z,179.82
2024-04-10T03:07:00.568Z,181.60
2024-04-10T03:08:00.695Z,181.58
2024-04-10T03:09:00.600Z,181.11
2024-04-10T03:10:00.625Z,181.14
2024-04-10T03:11:00.870Z,179.53
2024-04-10T03:12:01.030Z,180.41
2024-04-10T03:13:00.626Z,181.05
2024-04-10T03:14:00.719Z,179.78
2024-04-10T03:15:00.642Z,179.27
2024-04-10T03:16:00.583Z,181.98
2024-04-10T03:17:00.866Z,178.39
2024-04-10T03:18:00.787Z,179.37
2024-04-10T03:19:00.703Z,176.77
2024-04-10T03:20:00.805Z,180.50
2024-04-10T03:21:00.731Z,180.13
2024-04-10T03:22:00.785Z,178.29
2024-04-10T03:23:00.815Z,181.01
2024-04-10T03:24:00.809Z,181.58
2024-04-10T03:25:00.849Z,178.62
2024-04-10T03:26:00.906Z,179.39
2024-04-10T03:27:00.916Z,180.64
2024-04-10T03:28:01.069Z,180.54
2024-04-10T03:29:01.047Z,180.38
2024-04-10T03:30:01.018Z,179.34
2024-04-10T03:31:01.013Z,182.14
2024-04-10T03:32:01.099Z,180.45
2024-04-10T03:33:01.247Z,181.55
2024-04-10T03:34:01.254Z,180.75
2024-04-10T03:35:01.227Z,180.77
2024-04-10T03:36:01.194Z,180.20
2024-04-10T03:37:01.257Z,182.23
2024-04-10T03:38:01.400Z,179.38
2024-04-10T03:39:01.375Z,180.93
2024-04-10T03:40:01.412Z,183.55
2024-04-10T03:41:01.494Z,180.69
2024-04-10T03:42:01.384Z,179.50
2024-04-10T03:43:01.538Z,180.71
2024-04-10T03:44:01.552Z,181.90
2024-04-10T03:45:01.570Z,179.57
2024-04-10T03:46:01.570Z,178.76
2024-04-10T03:47:02.043Z,180.41
2024-04-10T03:48:01.762Z,180.65
2024-04-10T03:49:01.918Z,180.71
2024-04-10T03:50:01.868Z,179.98
2024-04-10T03:51:01.748Z,183.43
2024-04-10T03:52:01.752Z,181.08
2024-04-10T03:53:01.844Z,180.16
2024-04-10T03:54:01.918Z,181.89
2024-04-10T03:55:02.003Z,181.64
2024-04-10T03:56:01.946Z,182.34
2024-04-10T03:57:01.914Z,179.99
2024-04-10T03:58:01.969Z,182.72
2024-04-10T03:59:02.051Z,183.24
2024-04-10T04:00:02.032Z,182.01
2024-04-10T04:01:02.129Z,181.12
2024-04-10T04:02:02.248Z,181.11
2024-04-10T04:03:02.379Z,176.10
2024-04-10T04:04:02.372Z,174.73
2024-04-10T04:05:02.262Z,172.84
2024-04-10T04:06:02.303Z,170.41
2024-04-10T04:07:02.322Z,167.86
2024-04-10T04:08:02.356Z,163.24
2024-04-10T04:09:02.380Z,158.95
2024-04-10T04:10:02.473Z,151.98
2024-04-10T04:11:02.598Z,146.90
2024-04-10T04:12:02.644Z,143.05
2024-04-10T04:13:02.559Z,138.21
2024-04-10T04:14:02.715Z,131.30
2024-04-10T04:15:02.794Z,128.50
2024-04-10T04:16:02.775Z,122.43
2024-04-10T04:17:02.847Z,119.99
2024-04-10T04:18:02.922Z,112.24
2024-04-10T04:19:02.950Z,109.35
2024-04-10T04:20:03.116Z,105.41
2024-04-10T04:21:10.399Z,50.00
2024-04-10T04:22:10.577Z,50.00
2024-04-10T04:23:10.433Z,50.00
2024-04-10T04:24:10.485Z,50.00
2024-04-10T04:25:10.380Z,50.00
2024-04-10T04:26:10.443Z,52.45
2024-04-10T04:27:10.412Z,50.00
2024-04-10T04:28:10.456Z,50.69
2024-04-10T04:29:10.433Z,50.25
2024-04-10T04:30:10.407Z,50.00
2024-04-10T04:31:17.785Z,50.00
2024-04-10T04:32:17.754Z,50.00
2024-04-10T04:33:17.802Z,50.00
2024-04-10T04:34:17.814Z,50.00
2024-04-10T04:35:17.723Z,50.00
2024-04-10T04:36:17.632Z,52.30
2024-04-10T04:37:17.630Z,50.55
2024-04-10T04:38:17.769Z,51.93
2024-04-10T04:39:17.631Z,50.90
2024-04-10T04:40:17.672Z,51.82
2024-04-10T04:41:17.700Z,53.71
2024-04-10T04:42:17.664Z,53.29
2024-04-10T04:43:17.695Z,53.95
2024-04-10T04:44:17.760Z,55.45
2024-04-10T04:45:17.698Z,53.96
2024-04-10T04:46:17.794Z,55.92
2024-04-10T04:47:17.811Z,58.30
2024-04-10T04:48:18.124Z,58.77
2024-04-10T04:49:17.702Z,59.28
2024-04-10T04:50:17.731Z,58.92
2024-04-10T04:51:17.721Z,64.50
2024-04-10T04:52:17.725Z,63.21
2024-04-10T04:53:17.865Z,65.09
2024-04-10T04:54:17.858Z,66.63
2024-04-10T04:55:17.929Z,69.56
2024-04-10T04:56:17.975Z,73.29
2024-04-10T04:57:17.993Z,70.67
2024-04-10T04:58:18.084Z,75.20
2024-04-10T04:59:18.205Z,73.70
2024-04-10T05:00:18.267Z,74.63
2024-04-10T05:01:18.240Z,76.22
2024-04-10T05:02:18.486Z,79.21
2024-04-10T05:03:18.446Z,79.81
2024-04-10T05:04:18.575Z,82.50
2024-04-10T05:05:18.544Z,83.01
2024-04-10T05:06:21.004Z,85.57
2024-04-10T05:07:18.505Z,87.33
2024-04-10T05:08:18.611Z,88.50
2024-04-10T05:09:18.515Z,89.83
2024-04-10T05:10:18.697Z,90.05
2024-04-10T05:11:18.645Z,91.19
2024-04-10T05:12:18.668Z,92.52
2024-04-10T05:13:18.548Z,95.55
2024-04-10T05:14:18.843Z,98.46
2024-04-10T05:15:18.572Z,99.12
2024-04-10T05:16:18.562Z,100.55
2024-04-10T05:17:18.622Z,99.39
2024-04-10T05:18:18.656Z,98.68
2024-04-10T05:19:18.535Z,103.52
2024-04-10T05:20:19.250Z,103.17
2024-04-10T05:21:18.710Z,104.08
2024-04-10T05:22:18.514Z,106.29
2024-04-10T05:23:18.679Z,105.33
2024-04-10T05:24:18.619Z,110.17
2024-04-10T05:25:18.574Z,109.54
2024-04-10T05:26:18.648Z,112.71
2024-04-10T05:27:18.583Z,110.24
2024-04-10T05:28:18.559Z,113.15
2024-04-10T05:29:18.624Z,113.40
2024-04-10T05:30:18.603Z,110.52
2024-04-10T05:31:18.603Z,115.13
2024-04-10T05:32:18.663Z,116.36
2024-04-10T05:33:18.689Z,117.88
2024-04-10T05:34:18.849Z,116.80
2024-04-10T05:35:18.627Z,118.88
2024-04-10T05:36:18.540Z,118.23
2024-04-10T05:37:18.655Z,115.44
2024-04-10T05:38:18.594Z,111.91
2024-04-10T05:39:18.592Z,106.74
2024-04-10T05:40:18.979Z,103.55
2024-04-10T05:41:18.751Z,98.21
2024-04-10T05:42:18.722Z,96.37
2024-04-10T05:43:18.591Z,96.57
2024-04-10T05:44:19.088Z,88.38
2024-04-10T05:45:18.741Z,83.05
2024-04-10T05:46:18.797Z,84.41
2024-04-10T05:47:19.936Z,79.79
2024-04-10T05:48:18.739Z,77.03
2024-04-10T05:49:18.629Z,88.49
2024-04-10T05:50:19.170Z,85.79
2024-04-10T05:51:18.659Z,87.18
2024-04-10T05:52:18.611Z,85.33
2024-04-10T05:53:18.707Z,87.12
2024-04-10T05:54:18.910Z,92.17
2024-04-10T05:55:18.782Z,89.36
2024-04-10T05:56:18.691Z,95.72
2024-04-10T05:57:18.588Z,94.79
2024-04-10T05:58:18.758Z,98.38
2024-04-10T05:59:18.993Z,91.85
2024-04-10T06:00:18.769Z,99.64
2024-04-10T06:01:18.779Z,91.38
2024-04-10T06:02:19.060Z,91.71
2024-04-10T06:03:19.044Z,96.98
2024-04-10T06:04:18.957Z,98.12
2024-04-10T06:05:19.174Z,98.48
2024-04-10T06:06:19.025Z,99.38
2024-04-10T06:07:19.282Z,103.23
2024-04-10T06:08:19.226Z,107.33
2024-04-10T06:09:19.238Z,106.45
2024-04-10T06:10:19.288Z,107.55
2024-04-10T06:11:19.615Z,110.67
2024-04-10T06:12:19.441Z,109.47
2024-04-10T06:13:19.440Z,109.18
2024-04-10T06:14:19.699Z,109.94
2024-04-10T06:15:19.557Z,104.73
2024-04-10T06:16:20.561Z,105.40
2024-04-10T06:17:20.414Z,99.12
2024-04-10T06:18:19.695Z,93.22
2024-04-10T06:19:19.715Z,91.18
2024-04-10T06:20:20.241Z,88.27
2024-04-10T06:21:19.797Z,87.80
2024-04-10T06:22:23.018Z,86.85
2024-04-10T06:23:19.718Z,86.89
2024-04-10T06:24:19.804Z,87.01
2024-04-10T06:25:19.733Z,83.39
2024-04-10T06:26:19.790Z,84.94
2024-04-10T06:27:19.865Z,87.23
2024-04-10T06:28:19.740Z,86.44
2024-04-10T06:29:19.760Z,90.34
2024-04-10T06:30:19.843Z,95.46
2024-04-10T06:31:19.750Z,95.97
2024-04-10T06:32:20.063Z,94.02
2024-04-10T06:33:20.034Z,96.65
2024-04-10T06:34:19.875Z,99.09
2024-04-10T06:35:19.848Z,97.71
2024-04-10T06:36:19.707Z,101.18
2024-04-10T06:37:19.716Z,104.31
2024-04-10T06:38:19.952Z,104.43
2024-04-10T06:39:19.802Z,107.23
2024-04-10T06:40:21.111Z,107.32
2024-04-10T06:41:19.923Z,113.55
2024-04-10T06:42:20.162Z,111.74
2024-04-10T06:43:20.370Z,114.19
2024-04-10T06:44:19.850Z,117.10
2024-04-10T06:45:19.848Z,119.03
2024-04-10T06:46:19.808Z,124.19
2024-04-10T06:47:20.243Z,126.07
2024-04-10T06:48:20.177Z,129.11
2024-04-10T06:49:20.501Z,130.18
2024-04-10T06:50:20.203Z,132.02
2024-04-10T06:51:20.365Z,133.66
2024-04-10T06:52:20.377Z,135.86
2024-04-10T06:53:20.328Z,136.81
2024-04-10T06:54:23.420Z,136.97
2024-04-10T06:55:20.518Z,139.21
2024-04-10T06:56:20.495Z,139.18
2024-04-10T06:57:20.839Z,139.28
2024-04-10T06:58:20.360Z,140.66
2024-04-10T06:59:20.586Z,145.09
2024-04-10T07:00:20.573Z,143.07
2024-04-10T07:01:20.700Z,142.67
2024-04-10T07:02:20.823Z,143.11
2024-04-10T07:03:20.908Z,144.62
2024-04-10T07:04:20.503Z,143.45
2024-04-10T07:05:20.504Z,145.05
2024-04-10T07:06:20.608Z,147.18
2024-04-10T07:07:20.728Z,150.15
2024-04-10T07:08:21.026Z,146.63
2024-04-10T07:09:20.431Z,149.93
2024-04-10T07:10:20.403Z,148.57
2024-04-10T07:11:21.333Z,147.81
2024-04-10T07:12:20.670Z,149.19
2024-04-10T07:13:20.384Z,146.68
2024-04-10T07:14:20.480Z,148.66
2024-04-10T07:15:20.855Z,146.27
2024-04-10T07:16:20.529Z,144.66
2024-04-10T07:17:20.600Z,145.95
2024-04-10T07:18:20.427Z,144.40
2024-04-10T07:19:20.587Z,147.85
2024-04-10T07:20:20.998Z,151.64
2024-04-10T07:21:20.532Z,150.53
2024-04-10T07:22:20.508Z,151.97
2024-04-10T07:23:20.449Z,155.72
2024-04-10T07:24:20.511Z,158.75
2024-04-10T07:25:21.569Z,159.47
2024-04-10T07:26:20.516Z,156.53
2024-04-10T07:27:20.972Z,160.32
2024-04-10T07:28:20.374Z,161.29
2024-04-10T07:29:20.612Z,162.12
2024-04-10T07:30:20.814Z,164.41
2024-04-10T07:31:20.490Z,169.25
2024-04-10T07:32:20.680Z,168.61
2024-04-10T07:33:20.541Z,169.93
2024-04-10T07:34:20.826Z,170.11
2024-04-10T07:35:24.844Z,170.46
2024-04-10T07:36:20.452Z,167.46
2024-04-10T07:37:20.637Z,164.13
2024-04-10T07:38:22.297Z,153.90
2024-04-10T07:39:20.854Z,144.81
2024-04-10T07:40:20.735Z,134.04
2024-04-10T07:41:20.425Z,123.20
2024-04-10T07:42:20.657Z,116.05
2024-04-10T07:43:20.905Z,105.16
2024-04-10T07:44:20.480Z,102.73
2024-04-10T07:45:20.415Z,104.83
2024-04-10T07:46:20.507Z,99.25
2024-04-10T07:47:21.608Z,93.32
2024-04-10T07:48:21.398Z,92.45
2024-04-10T07:49:23.542Z,84.27
2024-04-10T07:50:20.890Z,86.71
2024-04-10T07:51:20.406Z,81.88
2024-04-10T07:52:21.894Z,82.13
2024-04-10T07:53:20.428Z,78.40
2024-04-10T07:54:20.450Z,80.35
2024-04-10T07:55:21.387Z,75.96
2024-04-10T07:56:20.489Z,73.43
2024-04-10T07:57:20.955Z,75.40
2024-04-10T07:58:20.529Z,69.78
2024-04-10T07:59:20.921Z,68.06
2024-04-10T08:00:20.860Z,70.45
2024-04-10T08:01:20.732Z,68.16
2024-04-10T08:02:20.950Z,65.93
2024-04-10T08:03:20.479Z,59.40
2024-04-10T08:04:20.667Z,55.90
2024-04-10T08:05:20.545Z,64.59
2024-04-10T08:06:21.942Z,56.42
2024-04-10T08:07:21.001Z,60.34
2024-04-10T08:08:21.592Z,61.29
2024-04-10T08:09:21.084Z,66.69
2024-04-10T08:10:21.450Z,63.92
2024-04-10T08:11:21.386Z,61.79
2024-04-10T08:12:21.308Z,55.42
2024-04-10T08:13:20.579Z,64.30
2024-04-10T08:14:20.776Z,60.58
2024-04-10T08:15:20.778Z,63.12
2024-04-10T08:16:23.040Z,63.72
2024-04-10T08:17:20.897Z,57.31
2024-04-10T08:18:21.442Z,58.75
2024-04-10T08:19:20.933Z,58.00
2024-04-10T08:20:23.005Z,56.91
2024-04-10T08:21:20.987Z,60.70
2024-04-10T08:22:21.935Z,58.44
2024-04-10T08:23:21.938Z,54.88
2024-04-10T08:24:21.250Z,54.67
2024-04-10T08:25:21.375Z,54.74
2024-04-10T08:26:21.776Z,52.27
2024-04-10T08:27:21.454Z,50.02
2024-04-10T08:28:21.396Z,50.00
2024-04-10T08:29:22.856Z,50.45
2024-04-10T08:30:21.411Z,52.57
2024-04-10T08:31:21.472Z,50.89
2024-04-10T08:32:22.975Z,51.19
2024-04-10T08:33:21.640Z,51.71
2024-04-10T08:34:21.646Z,50.21
2024-04-10T08:35:22.131Z,50.41
2024-04-10T08:36:21.721Z,50.00
2024-04-10T08:37:22.071Z,50.31
2024-04-10T08:38:21.760Z,50.00
2024-04-10T08:39:21.929Z,50.65
2024-04-10T08:40:23.033Z,51.46
2024-04-10T08:41:21.955Z,49.24
2024-04-10T08:42:24.056Z,52.05
2024-04-10T08:43:22.650Z,53.86
2024-04-10T08:44:22.362Z,52.24
2024-04-10T08:45:22.112Z,54.46
2024-04-10T08:46:22.320Z,53.89
2024-04-10T08:47:22.596Z,57.40
2024-04-10T08:48:22.532Z,55.97
2024-04-10T08:49:22.199Z,59.70
2024-04-10T08:50:26.427Z,60.73
2024-04-10T08:51:23.270Z,60.98
2024-04-10T08:52:22.767Z,62.70
2024-04-10T08:53:22.772Z,65.45
2024-04-10T08:54:22.313Z,72.94
2024-04-10T08:55:22.687Z,85.28
2024-04-10T08:56:22.351Z,89.90
2024-04-10T08:57:23.366Z,93.82
2024-04-10T08:58:22.230Z,96.57
2024-04-10T08:59:22.230Z,99.16
2024-04-10T09:00:22.878Z,102.54
2024-04-10T09:01:22.552Z,108.35
2024-04-10T09:02:26.881Z,111.95
2024-04-10T09:03:24.606Z,112.17
2024-04-10T09:04:23.721Z,113.38
2024-04-10T09:05:23.995Z,116.70
2024-04-10T09:06:24.673Z,120.35
2024-04-10T09:07:23.252Z,123.81
2024-04-10T09:08:22.370Z,132.47
2024-04-10T09:09:22.324Z,132.23
2024-04-10T09:10:22.518Z,135.64
2024-04-10T09:11:22.788Z,136.11
2024-04-10T09:12:22.465Z,138.45
2024-04-10T09:13:24.472Z,138.86
2024-04-10T09:14:26.004Z,138.95
2024-04-10T09:15:26.713Z,139.10
2024-04-10T09:16:24.599Z,139.11
2024-04-10T09:17:22.691Z,139.24
2024-04-10T09:18:26.204Z,140.55
2024-04-10T09:19:22.932Z,144.20
2024-04-10T09:20:22.687Z,150.98
2024-04-10T09:21:22.778Z,157.30
2024-04-10T09:22:22.757Z,158.94
2024-04-10T09:23:22.949Z,162.41
2024-04-10T09:24:26.802Z,166.93
2024-04-10T09:25:22.961Z,167.17
2024-04-10T09:26:22.750Z,167.54
2024-04-10T09:27:22.700Z,169.37
2024-04-10T09:28:22.854Z,170.62
2024-04-10T09:29:22.908Z,176.48
2024-04-10T09:30:23.995Z,177.61
2024-04-10T09:31:22.807Z,182.22
2024-04-10T09:32:23.149Z,182.31
2024-04-10T09:33:23.007Z,183.55
2024-04-10T09:34:23.262Z,176.54
2024-04-10T09:35:23.009Z,178.97
2024-04-10T09:36:22.952Z,169.59
2024-04-10T09:37:23.025Z,165.15
2024-04-10T09:38:23.251Z,166.54
2024-04-10T09:39:23.018Z,167.64
2024-04-10T09:40:23.790Z,166.42
2024-04-10T09:41:23.223Z,166.20
2024-04-10T09:42:23.413Z,167.07
2024-04-10T09:43:23.139Z,172.59
2024-04-10T09:44:23.451Z,172.61
2024-04-10T09:45:23.463Z,180.75
2024-04-10T09:46:23.311Z,180.48
2024-04-10T09:47:23.456Z,182.92
2024-04-10T09:48:24.218Z,186.09
2024-04-10T09:49:23.550Z,189.07
2024-04-10T09:50:23.594Z,192.68
2024-04-10T09:51:23.620Z,194.62
2024-04-10T09:52:23.828Z,195.24
2024-04-10T09:53:24.080Z,197.56
2024-04-10T09:54:23.714Z,199.17
2024-04-10T09:55:23.804Z,200.01
2024-04-10T09:56:23.838Z,199.65
2024-04-10T09:57:24.336Z,197.23
2024-04-10T09:58:24.550Z,199.10
2024-04-10T09:59:24.560Z,199.58
2024-04-10T10:00:23.989Z,200.00
2024-04-10T10:01:24.349Z,200.00
2024-04-10T10:02:24.259Z,196.62
2024-04-10T10:03:24.187Z,192.92
2024-04-10T10:04:26.552Z,188.22
2024-04-10T10:05:29.947Z,181.88
2024-04-10T10:06:26.217Z,181.89
2024-04-10T10:07:24.312Z,179.66
2024-04-10T10:08:24.261Z,177.49
2024-04-10T10:09:24.511Z,177.80
2024-04-10T10:10:24.327Z,178.67
2024-04-10T10:11:24.534Z,180.13
2024-04-10T10:12:24.479Z,177.15
2024-04-10T10:13:24.860Z,182.39
2024-04-10T10:14:24.425Z,184.62
2024-04-10T10:15:24.531Z,187.33
2024-04-10T10:16:26.415Z,190.03
2024-04-10T10:17:24.493Z,188.71
2024-04-10T10:18:32.950Z,188.96
2024-04-10T10:19:26.654Z,189.09
2024-04-10T10:20:24.622Z,190.20
2024-04-10T10:21:24.984Z,192.23
2024-04-10T10:22:24.504Z,195.23
2024-04-10T10:23:24.716Z,193.70
2024-04-10T10:24:25.775Z,198.19
2024-04-10T10:25:24.844Z,196.79
2024-04-10T10:26:25.392Z,197.05
2024-04-10T10:27:25.198Z,196.32
2024-04-10T10:28:24.515Z,196.54
2024-04-10T10:29:25.059Z,191.86
2024-04-10T10:30:24.546Z,191.48
2024-04-10T10:31:24.634Z,186.31
2024-04-10T10:32:24.725Z,187.62
2024-04-10T10:33:24.919Z,183.06
2024-04-10T10:34:25.114Z,180.99
2024-04-10T10:35:24.795Z,176.91
2024-04-10T10:36:24.804Z,174.13
2024-04-10T10:37:24.817Z,170.40
2024-04-10T10:38:24.913Z,167.30
2024-04-10T10:39:24.921Z,165.23
2024-04-10T10:40:25.471Z,165.71
2024-04-10T10:41:25.101Z,158.09
2024-04-10T10:42:25.112Z,158.26
2024-04-10T10:43:25.401Z,152.70
2024-04-10T10:44:26.019Z,149.25
2024-04-10T10:45:25.324Z,150.33
2024-04-10T10:46:25.431Z,145.54
2024-04-10T10:47:25.527Z,143.10
2024-04-10T10:48:26.184Z,138.27
2024-04-10T10:49:25.537Z,134.52
2024-04-10T10:50:25.793Z,132.84
2024-04-10T10:51:26.490Z,132.02
2024-04-10T10:52:26.591Z,130.44
2024-04-10T10:53:25.990Z,127.29
2024-04-10T10:54:26.173Z,126.53
2024-04-10T10:55:28.958Z,127.63
2024-04-10T10:56:26.133Z,125.94
2024-04-10T10:57:26.580Z,122.84
2024-04-10T10:58:26.105Z,126.90
2024-04-10T10:59:25.945Z,126.62
2024-04-10T11:00:26.027Z,128.25
2024-04-10T11:01:27.238Z,127.91
2024-04-10T11:02:26.156Z,122.27
2024-04-10T11:03:29.806Z,125.44
2024-04-10T11:04:26.414Z,125.44
2024-04-10T11:05:26.470Z,123.22
2024-04-10T11:06:26.081Z,121.69
2024-04-10T11:07:25.960Z,120.83
2024-04-10T11:08:27.030Z,117.28
2024-04-10T11:09:26.439Z,115.00
2024-04-10T11:10:27.022Z,113.96
2024-04-10T11:11:29.324Z,112.12
2024-04-10T11:12:26.140Z,111.78
2024-04-10T11:13:27.548Z,107.26
2024-04-10T11:14:26.156Z,104.51
2024-04-10T11:15:27.980Z,102.98
2024-04-10T11:16:27.088Z,97.33
2024-04-10T11:17:27.312Z,93.45
2024-04-10T11:18:26.219Z,92.89
2024-04-10T11:19:31.824Z,92.61
2024-04-10T11:20:27.243Z,91.13
2024-04-10T11:21:26.338Z,90.92
2024-04-10T11:22:26.125Z,92.91
2024-04-10T11:23:26.283Z,91.52
2024-04-10T11:24:26.079Z,93.44
2024-04-10T11:25:26.072Z,96.64
2024-04-10T11:26:26.218Z,97.66
2024-04-10T11:27:26.082Z,99.80
2024-04-10T11:28:26.100Z,99.25
2024-04-10T11:29:26.233Z,101.55
2024-04-10T11:30:26.103Z,101.27
2024-04-10T11:31:26.084Z,104.77
2024-04-10T11:32:26.274Z,104.12
2024-04-10T11:33:26.336Z,106.43
2024-04-10T11:34:26.263Z,108.31
2024-04-10T11:35:26.251Z,106.08
2024-04-10T11:36:26.105Z,107.81
2024-04-10T11:37:26.126Z,106.81
2024-04-10T11:38:26.175Z,106.92
2024-04-10T11:39:26.132Z,107.57
2024-04-10T11:40:26.084Z,109.77
2024-04-10T11:41:26.373Z,108.26
2024-04-10T11:42:26.210Z,107.88
2024-04-10T11:43:26.221Z,108.23
2024-04-10T11:44:26.337Z,104.53
2024-04-10T11:45:26.605Z,106.91
2024-04-10T11:46:26.611Z,107.61
2024-04-10T11:47:26.688Z,107.63
2024-04-10T11:48:26.699Z,106.10
2024-04-10T11:49:26.769Z,111.61
2024-04-10T11:50:26.828Z,109.16
2024-04-10T11:51:26.763Z,105.50
2024-04-10T11:52:26.860Z,107.90
2024-04-10T11:53:27.005Z,107.27
2024-04-10T11:54:27.090Z,106.48
2024-04-10T11:55:27.193Z,106.59
2024-04-10T11:56:27.264Z,107.26
2024-04-10T11:57:27.386Z,107.56
2024-04-10T11:58:27.245Z,110.38
2024-04-10T11:59:27.393Z,107.94
2024-04-10T12:00:27.409Z,107.74
2024-04-10T12:01:27.567Z,112.89
2024-04-10T12:02:27.660Z,117.52
2024-04-10T12:03:27.856Z,118.70
2024-04-10T12:04:27.687Z,119.76
2024-04-10T12:05:27.867Z,122.88
2024-04-10T12:06:28.269Z,126.07
2024-04-10T12:07:29.453Z,127.53
2024-04-10T12:08:28.045Z,130.77
2024-04-10T12:09:27.983Z,134.64
2024-04-10T12:10:28.042Z,138.62
2024-04-10T12:11:29.008Z,138.09
2024-04-10T12:12:28.210Z,146.07
2024-04-10T12:13:28.240Z,147.88
2024-04-10T12:14:28.721Z,144.84
2024-04-10T12:15:29.069Z,146.22
2024-04-10T12:16:28.333Z,147.40
2024-04-10T12:17:28.522Z,146.98
2024-04-10T12:18:29.820Z,143.74
2024-04-10T12:19:28.998Z,144.25
2024-04-10T12:20:28.549Z,144.95
2024-04-10T12:21:28.605Z,141.21
2024-04-10T12:22:28.734Z,138.25
2024-04-10T12:23:28.730Z,138.79
2024-04-10T12:24:28.792Z,138.31
2024-04-10T12:25:28.967Z,135.50
2024-04-10T12:26:29.006Z,136.26
2024-04-10T12:27:29.028Z,137.08
2024-04-10T12:28:29.094Z,134.82
2024-04-10T12:29:29.489Z,131.10
2024-04-10T12:30:29.136Z,131.89
2024-04-10T12:31:29.212Z,129.93
2024-04-10T12:32:29.540Z,127.86
2024-04-10T12:33:29.419Z,127.48
2024-04-10T12:34:29.532Z,127.59
2024-04-10T12:35:29.667Z,127.25